sensor_id;sensor_type;location;lat;lon;timestamp;P1;durP1;ratioP1;P2;durP2;ratioP2
1358;SDS011;673;48.098;14.422;2023-03-01T00:01:40;15.95;;;9.32;;
1358;SDS011;673;48.098;14.422;2023-03-01T00:04:08;15.30;;;9.10;;
1358;SDS011;673;48.098;14.422;2023-03-01T00:06:35;15.95;;;8.55;;
1358;SDS011;673;48.098;14.422;2023-03-01T00:09:02;19.58;;;9.38;;
1358;SDS011;673;48.098;14.422;2023-03-01T00:11:30;11.98;;;8.20;;
1358;SDS011;673;48.098;14.422;2023-03-01T00:13:59;16.42;;;8.50;;
1358;SDS011;673;48.098;14.422;2023-03-01T00:16:28;10.10;;;8.48;;
1358;SDS011;673;48.098;14.422;2023-03-01T00:18:58;17.25;;;7.50;;
1358;SDS011;673;48.098;14.422;2023-03-01T00:21:27;11.95;;;9.02;;
1358;SDS011;673;48.098;14.422;2023-03-01T00:23:54;13.35;;;9.20;;
1358;SDS011;673;48.098;14.422;2023-03-01T00:26:22;12.85;;;9.95;;
1358;SDS011;673;48.098;14.422;2023-03-01T00:28:51;16.08;;;10.43;;
1358;SDS011;673;48.098;14.422;2023-03-01T00:31:21;13.23;;;7.88;;
1358;SDS011;673;48.098;14.422;2023-03-01T00:33:51;10.80;;;7.72;;
1358;SDS011;673;48.098;14.422;2023-03-01T00:36:22;15.65;;;9.15;;
1358;SDS011;673;48.098;14.422;2023-03-01T00:38:51;11.80;;;8.27;;
1358;SDS011;673;48.098;14.422;2023-03-01T00:41:19;12.93;;;10.57;;
1358;SDS011;673;48.098;14.422;2023-03-01T00:43:48;14.88;;;9.77;;
1358;SDS011;673;48.098;14.422;2023-03-01T00:46:16;18.80;;;8.95;;
1358;SDS011;673;48.098;14.422;2023-03-01T00:48:45;12.40;;;7.65;;
1358;SDS011;673;48.098;14.422;2023-03-01T00:51:13;15.05;;;9.55;;
1358;SDS011;673;48.098;14.422;2023-03-01T00:53:42;15.85;;;9.15;;
1358;SDS011;673;48.098;14.422;2023-03-01T00:56:11;15.07;;;8.95;;
1358;SDS011;673;48.098;14.422;2023-03-01T00:58:39;15.73;;;8.90;;
1358;SDS011;673;48.098;14.422;2023-03-01T01:01:07;18.55;;;10.38;;
1358;SDS011;673;48.098;14.422;2023-03-01T01:03:42;12.63;;;8.68;;
1358;SDS011;673;48.098;14.422;2023-03-01T01:06:12;13.15;;;9.10;;
1358;SDS011;673;48.098;14.422;2023-03-01T01:08:40;16.10;;;10.00;;
1358;SDS011;673;48.098;14.422;2023-03-01T01:11:08;15.75;;;9.43;;
1358;SDS011;673;48.098;14.422;2023-03-01T01:13:37;18.50;;;11.18;;
1358;SDS011;673;48.098;14.422;2023-03-01T01:16:05;14.52;;;9.90;;
1358;SDS011;673;48.098;14.422;2023-03-01T01:18:33;13.20;;;8.68;;
1358;SDS011;673;48.098;14.422;2023-03-01T01:21:03;18.30;;;9.93;;
1358;SDS011;673;48.098;14.422;2023-03-01T01:23:31;13.98;;;10.50;;
1358;SDS011;673;48.098;14.422;2023-03-01T01:26:02;13.82;;;9.10;;
1358;SDS011;673;48.098;14.422;2023-03-01T01:28:31;15.05;;;8.65;;
1358;SDS011;673;48.098;14.422;2023-03-01T01:30:58;17.35;;;10.68;;
1358;SDS011;673;48.098;14.422;2023-03-01T01:33:26;18.42;;;10.18;;
1358;SDS011;673;48.098;14.422;2023-03-01T01:35:52;16.05;;;10.27;;
1358;SDS011;673;48.098;14.422;2023-03-01T01:38:19;18.00;;;10.88;;
1358;SDS011;673;48.098;14.422;2023-03-01T01:40:47;18.05;;;10.27;;
1358;SDS011;673;48.098;14.422;2023-03-01T01:43:19;22.15;;;9.65;;
1358;SDS011;673;48.098;14.422;2023-03-01T01:45:50;11.63;;;8.38;;
1358;SDS011;673;48.098;14.422;2023-03-01T01:48:20;21.25;;;11.00;;
1358;SDS011;673;48.098;14.422;2023-03-01T01:50:53;14.98;;;9.80;;
1358;SDS011;673;48.098;14.422;2023-03-01T01:53:25;21.98;;;12.02;;
1358;SDS011;673;48.098;14.422;2023-03-01T01:55:54;18.48;;;10.25;;
1358;SDS011;673;48.098;14.422;2023-03-01T01:58:25;15.75;;;10.40;;
1358;SDS011;673;48.098;14.422;2023-03-01T02:00:57;15.80;;;9.77;;
1358;SDS011;673;48.098;14.422;2023-03-01T02:03:27;22.83;;;13.73;;
1358;SDS011;673;48.098;14.422;2023-03-01T02:06:03;15.25;;;10.52;;
1358;SDS011;673;48.098;14.422;2023-03-01T02:08:34;14.15;;;9.10;;
1358;SDS011;673;48.098;14.422;2023-03-01T02:11:04;19.73;;;11.35;;
1358;SDS011;673;48.098;14.422;2023-03-01T02:13:32;18.48;;;12.48;;
1358;SDS011;673;48.098;14.422;2023-03-01T02:16:03;22.67;;;12.60;;
1358;SDS011;673;48.098;14.422;2023-03-01T02:18:31;21.35;;;11.50;;
1358;SDS011;673;48.098;14.422;2023-03-01T02:21:02;14.70;;;10.23;;
1358;SDS011;673;48.098;14.422;2023-03-01T02:23:34;19.52;;;12.60;;
1358;SDS011;673;48.098;14.422;2023-03-01T02:26:04;19.20;;;12.55;;
1358;SDS011;673;48.098;14.422;2023-03-01T02:28:38;17.48;;;11.63;;
1358;SDS011;673;48.098;14.422;2023-03-01T02:31:07;19.63;;;11.05;;
1358;SDS011;673;48.098;14.422;2023-03-01T02:33:53;16.17;;;10.95;;
1358;SDS011;673;48.098;14.422;2023-03-01T02:36:21;24.63;;;14.80;;
1358;SDS011;673;48.098;14.422;2023-03-01T02:38:51;26.58;;;13.98;;
1358;SDS011;673;48.098;14.422;2023-03-01T02:41:21;23.60;;;14.52;;
1358;SDS011;673;48.098;14.422;2023-03-01T02:43:52;24.30;;;12.25;;
1358;SDS011;673;48.098;14.422;2023-03-01T02:46:20;25.05;;;14.40;;
1358;SDS011;673;48.098;14.422;2023-03-01T02:48:49;24.85;;;15.10;;
1358;SDS011;673;48.098;14.422;2023-03-01T02:51:38;16.00;;;11.85;;
1358;SDS011;673;48.098;14.422;2023-03-01T02:54:15;19.15;;;12.50;;
1358;SDS011;673;48.098;14.422;2023-03-01T02:56:47;29.58;;;13.43;;
1358;SDS011;673;48.098;14.422;2023-03-01T02:59:17;20.27;;;13.10;;
1358;SDS011;673;48.098;14.422;2023-03-01T03:01:46;23.67;;;13.25;;
1358;SDS011;673;48.098;14.422;2023-03-01T03:04:14;18.20;;;14.65;;
1358;SDS011;673;48.098;14.422;2023-03-01T03:06:43;21.38;;;12.43;;
1358;SDS011;673;48.098;14.422;2023-03-01T03:09:10;20.98;;;14.30;;
1358;SDS011;673;48.098;14.422;2023-03-01T03:11:38;25.88;;;14.02;;
1358;SDS011;673;48.098;14.422;2023-03-01T03:14:06;19.13;;;12.20;;
1358;SDS011;673;48.098;14.422;2023-03-01T03:16:39;23.10;;;13.70;;
1358;SDS011;673;48.098;14.422;2023-03-01T03:19:06;23.65;;;13.65;;
1358;SDS011;673;48.098;14.422;2023-03-01T03:21:33;22.38;;;13.60;;
1358;SDS011;673;48.098;14.422;2023-03-01T03:24:01;29.95;;;15.93;;
1358;SDS011;673;48.098;14.422;2023-03-01T03:26:29;25.55;;;14.57;;
1358;SDS011;673;48.098;14.422;2023-03-01T03:28:56;25.20;;;15.02;;
1358;SDS011;673;48.098;14.422;2023-03-01T03:31:23;25.98;;;15.05;;
1358;SDS011;673;48.098;14.422;2023-03-01T03:33:51;20.35;;;13.95;;
1358;SDS011;673;48.098;14.422;2023-03-01T03:36:19;24.75;;;15.23;;
1358;SDS011;673;48.098;14.422;2023-03-01T03:38:48;29.85;;;15.00;;
1358;SDS011;673;48.098;14.422;2023-03-01T03:41:15;26.33;;;14.52;;
1358;SDS011;673;48.098;14.422;2023-03-01T03:43:43;22.83;;;15.15;;
1358;SDS011;673;48.098;14.422;2023-03-01T03:46:10;24.20;;;16.27;;
1358;SDS011;673;48.098;14.422;2023-03-01T03:48:38;20.67;;;13.90;;
1358;SDS011;673;48.098;14.422;2023-03-01T03:51:09;23.30;;;14.10;;
1358;SDS011;673;48.098;14.422;2023-03-01T03:53:36;26.10;;;15.90;;
1358;SDS011;673;48.098;14.422;2023-03-01T03:56:04;28.98;;;19.60;;
1358;SDS011;673;48.098;14.422;2023-03-01T03:58:31;17.75;;;12.55;;
1358;SDS011;673;48.098;14.422;2023-03-01T04:00:59;31.58;;;19.55;;
1358;SDS011;673;48.098;14.422;2023-03-01T04:03:27;24.90;;;14.98;;
1358;SDS011;673;48.098;14.422;2023-03-01T04:05:56;23.88;;;16.33;;
1358;SDS011;673;48.098;14.422;2023-03-01T04:08:25;22.17;;;14.80;;
1358;SDS011;673;48.098;14.422;2023-03-01T04:10:56;29.85;;;14.73;;
1358;SDS011;673;48.098;14.422;2023-03-01T04:13:25;22.80;;;15.15;;
1358;SDS011;673;48.098;14.422;2023-03-01T04:15:53;26.20;;;16.25;;
1358;SDS011;673;48.098;14.422;2023-03-01T04:18:21;24.42;;;15.02;;
1358;SDS011;673;48.098;14.422;2023-03-01T04:20:49;26.40;;;15.27;;
1358;SDS011;673;48.098;14.422;2023-03-01T04:23:20;31.45;;;15.57;;
1358;SDS011;673;48.098;14.422;2023-03-01T04:25:49;23.98;;;16.98;;
1358;SDS011;673;48.098;14.422;2023-03-01T04:28:21;26.15;;;16.92;;
1358;SDS011;673;48.098;14.422;2023-03-01T04:30:49;24.90;;;16.50;;
1358;SDS011;673;48.098;14.422;2023-03-01T04:33:17;30.23;;;16.52;;
1358;SDS011;673;48.098;14.422;2023-03-01T04:35:44;27.70;;;14.63;;
1358;SDS011;673;48.098;14.422;2023-03-01T04:38:14;33.42;;;18.65;;
1358;SDS011;673;48.098;14.422;2023-03-01T04:40:41;23.48;;;16.40;;
1358;SDS011;673;48.098;14.422;2023-03-01T04:43:11;32.95;;;18.58;;
1358;SDS011;673;48.098;14.422;2023-03-01T04:45:40;30.38;;;18.83;;
1358;SDS011;673;48.098;14.422;2023-03-01T04:48:07;24.00;;;17.38;;
1358;SDS011;673;48.098;14.422;2023-03-01T04:50:34;29.58;;;17.15;;
1358;SDS011;673;48.098;14.422;2023-03-01T04:53:01;25.58;;;15.93;;
1358;SDS011;673;48.098;14.422;2023-03-01T04:55:29;26.83;;;16.58;;
1358;SDS011;673;48.098;14.422;2023-03-01T04:57:56;21.77;;;14.52;;
1358;SDS011;673;48.098;14.422;2023-03-01T05:00:25;22.27;;;17.27;;
1358;SDS011;673;48.098;14.422;2023-03-01T05:02:52;24.80;;;14.23;;
1358;SDS011;673;48.098;14.422;2023-03-01T05:05:20;28.65;;;18.80;;
1358;SDS011;673;48.098;14.422;2023-03-01T05:07:51;29.33;;;17.90;;
1358;SDS011;673;48.098;14.422;2023-03-01T05:10:19;26.25;;;14.10;;
1358;SDS011;673;48.098;14.422;2023-03-01T05:12:46;28.58;;;17.17;;
1358;SDS011;673;48.098;14.422;2023-03-01T05:15:13;31.80;;;18.15;;
1358;SDS011;673;48.098;14.422;2023-03-01T05:17:41;37.70;;;19.48;;
1358;SDS011;673;48.098;14.422;2023-03-01T05:20:09;28.02;;;18.58;;
1358;SDS011;673;48.098;14.422;2023-03-01T05:22:37;27.23;;;15.93;;
1358;SDS011;673;48.098;14.422;2023-03-01T05:25:04;29.08;;;17.38;;
1358;SDS011;673;48.098;14.422;2023-03-01T05:27:33;31.48;;;18.17;;
1358;SDS011;673;48.098;14.422;2023-03-01T05:30:00;26.58;;;16.25;;
1358;SDS011;673;48.098;14.422;2023-03-01T05:32:38;24.40;;;16.83;;
1358;SDS011;673;48.098;14.422;2023-03-01T05:35:09;33.97;;;17.30;;
1358;SDS011;673;48.098;14.422;2023-03-01T05:37:39;25.55;;;14.07;;
1358;SDS011;673;48.098;14.422;2023-03-01T05:40:08;33.67;;;18.80;;
1358;SDS011;673;48.098;14.422;2023-03-01T05:42:41;24.27;;;15.90;;
1358;SDS011;673;48.098;14.422;2023-03-01T05:45:10;27.98;;;16.42;;
1358;SDS011;673;48.098;14.422;2023-03-01T05:47:38;22.75;;;16.33;;
1358;SDS011;673;48.098;14.422;2023-03-01T05:50:10;25.88;;;18.38;;
1358;SDS011;673;48.098;14.422;2023-03-01T05:52:38;28.10;;;17.35;;
1358;SDS011;673;48.098;14.422;2023-03-01T05:55:06;25.83;;;17.55;;
1358;SDS011;673;48.098;14.422;2023-03-01T05:57:33;40.47;;;18.70;;
1358;SDS011;673;48.098;14.422;2023-03-01T06:00:00;29.73;;;17.90;;
1358;SDS011;673;48.098;14.422;2023-03-01T06:02:28;28.27;;;18.13;;
1358;SDS011;673;48.098;14.422;2023-03-01T06:04:55;31.45;;;20.38;;
1358;SDS011;673;48.098;14.422;2023-03-01T06:07:23;31.02;;;15.52;;
1358;SDS011;673;48.098;14.422;2023-03-01T06:09:50;28.80;;;19.05;;
1358;SDS011;673;48.098;14.422;2023-03-01T06:12:17;31.45;;;19.27;;
1358;SDS011;673;48.098;14.422;2023-03-01T06:14:45;29.30;;;17.83;;
1358;SDS011;673;48.098;14.422;2023-03-01T06:17:13;34.65;;;18.83;;
1358;SDS011;673;48.098;14.422;2023-03-01T06:19:40;29.85;;;20.20;;
1358;SDS011;673;48.098;14.422;2023-03-01T06:22:07;32.03;;;17.02;;
1358;SDS011;673;48.098;14.422;2023-03-01T06:24:35;28.90;;;17.65;;
1358;SDS011;673;48.098;14.422;2023-03-01T06:27:02;29.20;;;19.15;;
1358;SDS011;673;48.098;14.422;2023-03-01T06:29:29;32.20;;;20.25;;
1358;SDS011;673;48.098;14.422;2023-03-01T06:31:56;35.58;;;19.73;;
1358;SDS011;673;48.098;14.422;2023-03-01T06:34:23;34.38;;;16.85;;
1358;SDS011;673;48.098;14.422;2023-03-01T06:36:50;31.80;;;18.98;;
1358;SDS011;673;48.098;14.422;2023-03-01T06:39:17;30.75;;;19.05;;
1358;SDS011;673;48.098;14.422;2023-03-01T06:41:45;28.50;;;17.58;;
1358;SDS011;673;48.098;14.422;2023-03-01T06:44:12;33.78;;;19.45;;
1358;SDS011;673;48.098;14.422;2023-03-01T06:46:40;35.63;;;20.30;;
1358;SDS011;673;48.098;14.422;2023-03-01T06:49:07;28.83;;;18.00;;
1358;SDS011;673;48.098;14.422;2023-03-01T06:51:34;27.00;;;18.02;;
1358;SDS011;673;48.098;14.422;2023-03-01T06:54:02;40.67;;;20.50;;
1358;SDS011;673;48.098;14.422;2023-03-01T06:56:30;35.90;;;18.10;;
1358;SDS011;673;48.098;14.422;2023-03-01T06:58:58;31.92;;;20.30;;
1358;SDS011;673;48.098;14.422;2023-03-01T07:01:27;28.95;;;19.17;;
1358;SDS011;673;48.098;14.422;2023-03-01T07:03:54;31.00;;;17.90;;
1358;SDS011;673;48.098;14.422;2023-03-01T07:06:22;30.25;;;17.48;;
1358;SDS011;673;48.098;14.422;2023-03-01T07:08:49;37.60;;;21.08;;
1358;SDS011;673;48.098;14.422;2023-03-01T07:11:16;28.55;;;17.20;;
1358;SDS011;673;48.098;14.422;2023-03-01T07:13:43;34.55;;;19.30;;
1358;SDS011;673;48.098;14.422;2023-03-01T07:16:11;34.95;;;19.05;;
1358;SDS011;673;48.098;14.422;2023-03-01T07:18:39;33.00;;;19.90;;
1358;SDS011;673;48.098;14.422;2023-03-01T07:21:06;44.15;;;25.17;;
1358;SDS011;673;48.098;14.422;2023-03-01T07:23:34;34.58;;;23.58;;
1358;SDS011;673;48.098;14.422;2023-03-01T07:26:01;67.78;;;34.60;;
1358;SDS011;673;48.098;14.422;2023-03-01T07:28:29;63.78;;;37.55;;
1358;SDS011;673;48.098;14.422;2023-03-01T07:31:00;33.83;;;18.95;;
1358;SDS011;673;48.098;14.422;2023-03-01T07:33:29;27.85;;;16.45;;
1358;SDS011;673;48.098;14.422;2023-03-01T07:35:57;34.38;;;20.27;;
1358;SDS011;673;48.098;14.422;2023-03-01T07:38:24;28.63;;;17.80;;
1358;SDS011;673;48.098;14.422;2023-03-01T07:40:52;25.85;;;17.85;;
1358;SDS011;673;48.098;14.422;2023-03-01T07:43:19;29.67;;;18.37;;
1358;SDS011;673;48.098;14.422;2023-03-01T07:45:46;23.38;;;15.80;;
1358;SDS011;673;48.098;14.422;2023-03-01T07:48:13;25.60;;;18.50;;
1358;SDS011;673;48.098;14.422;2023-03-01T07:50:41;31.05;;;20.58;;
1358;SDS011;673;48.098;14.422;2023-03-01T07:53:08;33.95;;;19.85;;
1358;SDS011;673;48.098;14.422;2023-03-01T07:55:35;38.67;;;21.75;;
1358;SDS011;673;48.098;14.422;2023-03-01T07:58:03;30.60;;;19.70;;
1358;SDS011;673;48.098;14.422;2023-03-01T08:00:30;31.40;;;20.30;;
1358;SDS011;673;48.098;14.422;2023-03-01T08:02:58;31.67;;;19.90;;
1358;SDS011;673;48.098;14.422;2023-03-01T08:05:25;26.40;;;19.93;;
1358;SDS011;673;48.098;14.422;2023-03-01T08:07:54;31.53;;;17.70;;
1358;SDS011;673;48.098;14.422;2023-03-01T08:10:21;33.80;;;20.13;;
1358;SDS011;673;48.098;14.422;2023-03-01T08:12:47;36.28;;;21.55;;
1358;SDS011;673;48.098;14.422;2023-03-01T08:15:16;30.03;;;17.77;;
1358;SDS011;673;48.098;14.422;2023-03-01T08:17:44;23.45;;;14.05;;
1358;SDS011;673;48.098;14.422;2023-03-01T08:20:11;32.93;;;18.50;;
1358;SDS011;673;48.098;14.422;2023-03-01T08:22:38;29.85;;;19.13;;
1358;SDS011;673;48.098;14.422;2023-03-01T08:25:06;27.53;;;17.50;;
1358;SDS011;673;48.098;14.422;2023-03-01T08:27:34;31.60;;;18.67;;
1358;SDS011;673;48.098;14.422;2023-03-01T08:30:01;31.70;;;19.33;;
1358;SDS011;673;48.098;14.422;2023-03-01T08:32:28;26.67;;;17.33;;
1358;SDS011;673;48.098;14.422;2023-03-01T08:34:55;29.43;;;19.63;;
1358;SDS011;673;48.098;14.422;2023-03-01T08:37:22;31.17;;;20.57;;
1358;SDS011;673;48.098;14.422;2023-03-01T08:39:49;29.03;;;20.20;;
1358;SDS011;673;48.098;14.422;2023-03-01T08:42:17;33.97;;;19.00;;
1358;SDS011;673;48.098;14.422;2023-03-01T08:44:44;22.77;;;15.77;;
1358;SDS011;673;48.098;14.422;2023-03-01T08:47:11;26.13;;;18.13;;
1358;SDS011;673;48.098;14.422;2023-03-01T08:49:38;27.03;;;17.17;;
1358;SDS011;673;48.098;14.422;2023-03-01T08:52:04;28.57;;;17.77;;
1358;SDS011;673;48.098;14.422;2023-03-01T08:54:31;29.53;;;17.70;;
1358;SDS011;673;48.098;14.422;2023-03-01T08:57:00;28.73;;;18.53;;
1358;SDS011;673;48.098;14.422;2023-03-01T08:59:29;23.20;;;16.47;;
1358;SDS011;673;48.098;14.422;2023-03-01T09:02:00;20.57;;;12.33;;
1358;SDS011;673;48.098;14.422;2023-03-01T09:04:27;23.23;;;16.60;;
1358;SDS011;673;48.098;14.422;2023-03-01T09:06:54;27.33;;;17.10;;
1358;SDS011;673;48.098;14.422;2023-03-01T09:09:21;25.23;;;15.63;;
1358;SDS011;673;48.098;14.422;2023-03-01T09:11:48;19.93;;;14.90;;
1358;SDS011;673;48.098;14.422;2023-03-01T09:14:15;27.37;;;17.00;;
1358;SDS011;673;48.098;14.422;2023-03-01T09:16:44;23.27;;;14.40;;
1358;SDS011;673;48.098;14.422;2023-03-01T09:19:11;25.77;;;15.90;;
1358;SDS011;673;48.098;14.422;2023-03-01T09:21:38;23.47;;;13.97;;
1358;SDS011;673;48.098;14.422;2023-03-01T09:24:06;25.23;;;15.37;;
1358;SDS011;673;48.098;14.422;2023-03-01T09:26:37;25.40;;;16.13;;
1358;SDS011;673;48.098;14.422;2023-03-01T09:29:04;25.17;;;16.10;;
1358;SDS011;673;48.098;14.422;2023-03-01T09:31:34;21.97;;;15.00;;
1358;SDS011;673;48.098;14.422;2023-03-01T09:34:02;24.03;;;16.60;;
1358;SDS011;673;48.098;14.422;2023-03-01T09:36:30;23.10;;;14.27;;
1358;SDS011;673;48.098;14.422;2023-03-01T09:38:57;22.93;;;16.67;;
1358;SDS011;673;48.098;14.422;2023-03-01T09:41:29;25.90;;;16.90;;
1358;SDS011;673;48.098;14.422;2023-03-01T09:44:10;20.80;;;14.77;;
1358;SDS011;673;48.098;14.422;2023-03-01T09:46:45;21.37;;;13.70;;
1358;SDS011;673;48.098;14.422;2023-03-01T09:49:15;26.33;;;14.53;;
1358;SDS011;673;48.098;14.422;2023-03-01T09:51:47;21.83;;;13.37;;
1358;SDS011;673;48.098;14.422;2023-03-01T09:54:21;16.87;;;10.40;;
1358;SDS011;673;48.098;14.422;2023-03-01T09:56:52;20.40;;;13.27;;
1358;SDS011;673;48.098;14.422;2023-03-01T09:59:28;20.70;;;12.37;;
1358;SDS011;673;48.098;14.422;2023-03-01T10:02:05;19.20;;;12.87;;
1358;SDS011;673;48.098;14.422;2023-03-01T10:04:48;19.03;;;13.57;;
1358;SDS011;673;48.098;14.422;2023-03-01T10:07:20;22.33;;;13.60;;
1358;SDS011;673;48.098;14.422;2023-03-01T10:09:54;19.50;;;12.67;;
1358;SDS011;673;48.098;14.422;2023-03-01T10:12:22;22.13;;;14.20;;
1358;SDS011;673;48.098;14.422;2023-03-01T10:14:54;18.67;;;14.50;;
1358;SDS011;673;48.098;14.422;2023-03-01T10:17:27;22.63;;;14.27;;
1358;SDS011;673;48.098;14.422;2023-03-01T10:20:06;20.33;;;12.03;;
1358;SDS011;673;48.098;14.422;2023-03-01T10:22:41;19.30;;;12.63;;
1358;SDS011;673;48.098;14.422;2023-03-01T10:25:12;14.77;;;12.10;;
1358;SDS011;673;48.098;14.422;2023-03-01T10:27:43;20.17;;;12.80;;
1358;SDS011;673;48.098;14.422;2023-03-01T10:30:19;14.97;;;10.60;;
1358;SDS011;673;48.098;14.422;2023-03-01T10:32:49;18.60;;;13.20;;
1358;SDS011;673;48.098;14.422;2023-03-01T10:35:21;16.90;;;12.37;;
1358;SDS011;673;48.098;14.422;2023-03-01T10:37:56;21.03;;;11.97;;
1358;SDS011;673;48.098;14.422;2023-03-01T10:40:24;15.73;;;12.03;;
1358;SDS011;673;48.098;14.422;2023-03-01T10:42:51;20.43;;;13.07;;
1358;SDS011;673;48.098;14.422;2023-03-01T10:48:10;17.30;;;13.30;;
1358;SDS011;673;48.098;14.422;2023-03-01T10:50:41;21.03;;;12.80;;
1358;SDS011;673;48.098;14.422;2023-03-01T10:53:22;20.20;;;13.17;;
1358;SDS011;673;48.098;14.422;2023-03-01T10:56:01;20.20;;;13.47;;
1358;SDS011;673;48.098;14.422;2023-03-01T10:58:31;20.43;;;11.53;;
1358;SDS011;673;48.098;14.422;2023-03-01T11:01:00;17.90;;;12.30;;
1358;SDS011;673;48.098;14.422;2023-03-01T11:03:29;16.20;;;11.30;;
1358;SDS011;673;48.098;14.422;2023-03-01T11:06:00;15.97;;;10.60;;
1358;SDS011;673;48.098;14.422;2023-03-01T11:08:34;14.63;;;10.30;;
1358;SDS011;673;48.098;14.422;2023-03-01T11:13:50;18.33;;;12.23;;
1358;SDS011;673;48.098;14.422;2023-03-01T11:16:32;16.20;;;10.10;;
1358;SDS011;673;48.098;14.422;2023-03-01T11:19:03;18.27;;;13.50;;
1358;SDS011;673;48.098;14.422;2023-03-01T11:24:39;14.37;;;11.43;;
1358;SDS011;673;48.098;14.422;2023-03-01T11:27:15;16.37;;;10.30;;
1358;SDS011;673;48.098;14.422;2023-03-01T11:29:46;14.40;;;10.20;;
1358;SDS011;673;48.098;14.422;2023-03-01T11:32:17;14.77;;;11.53;;
1358;SDS011;673;48.098;14.422;2023-03-01T11:34:53;13.73;;;11.37;;
1358;SDS011;673;48.098;14.422;2023-03-01T11:37:28;18.00;;;11.07;;
1358;SDS011;673;48.098;14.422;2023-03-01T11:40:04;21.80;;;11.70;;
1358;SDS011;673;48.098;14.422;2023-03-01T11:42:41;18.20;;;12.13;;
1358;SDS011;673;48.098;14.422;2023-03-01T11:45:14;16.80;;;10.30;;
1358;SDS011;673;48.098;14.422;2023-03-01T11:47:45;15.90;;;10.90;;
1358;SDS011;673;48.098;14.422;2023-03-01T11:50:25;11.83;;;10.37;;
1358;SDS011;673;48.098;14.422;2023-03-01T11:53:00;17.23;;;10.70;;
1358;SDS011;673;48.098;14.422;2023-03-01T11:55:39;15.17;;;11.97;;
1358;SDS011;673;48.098;14.422;2023-03-01T11:58:25;15.00;;;10.97;;
1358;SDS011;673;48.098;14.422;2023-03-01T12:01:13;14.67;;;9.40;;
1358;SDS011;673;48.098;14.422;2023-03-01T12:03:57;25.23;;;11.00;;
1358;SDS011;673;48.098;14.422;2023-03-01T12:06:43;14.23;;;9.37;;
1358;SDS011;673;48.098;14.422;2023-03-01T12:09:33;15.23;;;10.63;;
1358;SDS011;673;48.098;14.422;2023-03-01T12:12:30;14.40;;;9.97;;
1358;SDS011;673;48.098;14.422;2023-03-01T12:18:02;17.77;;;11.20;;
1358;SDS011;673;48.098;14.422;2023-03-01T12:20:39;14.63;;;10.83;;
1358;SDS011;673;48.098;14.422;2023-03-01T12:23:22;18.23;;;11.37;;
1358;SDS011;673;48.098;14.422;2023-03-01T12:26:04;15.50;;;9.97;;
1358;SDS011;673;48.098;14.422;2023-03-01T12:34:31;16.70;;;11.20;;
1358;SDS011;673;48.098;14.422;2023-03-01T12:37:12;19.77;;;13.27;;
1358;SDS011;673;48.098;14.422;2023-03-01T12:39:55;15.83;;;11.30;;
1358;SDS011;673;48.098;14.422;2023-03-01T12:42:40;15.03;;;9.57;;
1358;SDS011;673;48.098;14.422;2023-03-01T12:48:15;16.30;;;12.17;;
1358;SDS011;673;48.098;14.422;2023-03-01T12:51:01;16.77;;;9.90;;
1358;SDS011;673;48.098;14.422;2023-03-01T12:53:34;16.17;;;11.57;;
1358;SDS011;673;48.098;14.422;2023-03-01T12:56:05;17.00;;;10.17;;
1358;SDS011;673;48.098;14.422;2023-03-01T12:58:39;15.67;;;10.60;;
1358;SDS011;673;48.098;14.422;2023-03-01T13:01:14;18.13;;;11.33;;
1358;SDS011;673;48.098;14.422;2023-03-01T13:03:52;15.13;;;11.33;;
1358;SDS011;673;48.098;14.422;2023-03-01T13:06:38;22.20;;;13.80;;
1358;SDS011;673;48.098;14.422;2023-03-01T13:09:11;17.10;;;11.90;;
1358;SDS011;673;48.098;14.422;2023-03-01T13:11:43;17.87;;;11.80;;
1358;SDS011;673;48.098;14.422;2023-03-01T13:19:58;18.20;;;11.43;;
1358;SDS011;673;48.098;14.422;2023-03-01T13:22:26;14.60;;;11.30;;
1358;SDS011;673;48.098;14.422;2023-03-01T13:25:00;17.63;;;11.83;;
1358;SDS011;673;48.098;14.422;2023-03-01T13:27:38;16.83;;;12.53;;
1358;SDS011;673;48.098;14.422;2023-03-01T13:30:12;16.23;;;10.73;;
1358;SDS011;673;48.098;14.422;2023-03-01T13:36:05;14.50;;;9.40;;
1358;SDS011;673;48.098;14.422;2023-03-01T13:38:36;13.57;;;10.13;;
1358;SDS011;673;48.098;14.422;2023-03-01T13:41:06;20.40;;;10.23;;
1358;SDS011;673;48.098;14.422;2023-03-01T13:43:34;12.57;;;8.90;;
1358;SDS011;673;48.098;14.422;2023-03-01T13:46:07;14.10;;;10.90;;
1358;SDS011;673;48.098;14.422;2023-03-01T13:48:38;12.80;;;8.07;;
1358;SDS011;673;48.098;14.422;2023-03-01T13:51:07;13.13;;;8.67;;
1358;SDS011;673;48.098;14.422;2023-03-01T13:53:38;15.00;;;10.57;;
1358;SDS011;673;48.098;14.422;2023-03-01T13:56:10;16.70;;;10.20;;
1358;SDS011;673;48.098;14.422;2023-03-01T13:58:49;18.00;;;10.23;;
1358;SDS011;673;48.098;14.422;2023-03-01T14:01:22;16.07;;;11.40;;
1358;SDS011;673;48.098;14.422;2023-03-01T14:03:51;19.27;;;13.30;;
1358;SDS011;673;48.098;14.422;2023-03-01T14:06:20;18.37;;;11.77;;
1358;SDS011;673;48.098;14.422;2023-03-01T14:08:48;16.30;;;9.10;;
1358;SDS011;673;48.098;14.422;2023-03-01T14:14:48;18.90;;;10.17;;
1358;SDS011;673;48.098;14.422;2023-03-01T14:17:29;17.83;;;11.87;;
1358;SDS011;673;48.098;14.422;2023-03-01T14:20:14;19.83;;;10.73;;
1358;SDS011;673;48.098;14.422;2023-03-01T14:22:45;20.40;;;13.10;;
1358;SDS011;673;48.098;14.422;2023-03-01T14:25:23;19.97;;;11.83;;
1358;SDS011;673;48.098;14.422;2023-03-01T14:27:54;14.63;;;10.03;;
1358;SDS011;673;48.098;14.422;2023-03-01T14:30:26;9.93;;;8.87;;
1358;SDS011;673;48.098;14.422;2023-03-01T14:32:59;15.40;;;11.77;;
1358;SDS011;673;48.098;14.422;2023-03-01T14:35:28;17.33;;;11.17;;
1358;SDS011;673;48.098;14.422;2023-03-01T14:37:56;16.03;;;11.87;;
1358;SDS011;673;48.098;14.422;2023-03-01T14:40:25;17.87;;;10.90;;
1358;SDS011;673;48.098;14.422;2023-03-01T14:42:53;14.17;;;10.10;;
1358;SDS011;673;48.098;14.422;2023-03-01T14:45:22;20.00;;;10.80;;
1358;SDS011;673;48.098;14.422;2023-03-01T14:47:52;13.33;;;8.90;;
1358;SDS011;673;48.098;14.422;2023-03-01T14:50:26;13.17;;;9.27;;
1358;SDS011;673;48.098;14.422;2023-03-01T14:52:55;17.70;;;9.97;;
1358;SDS011;673;48.098;14.422;2023-03-01T14:55:25;13.30;;;8.83;;
1358;SDS011;673;48.098;14.422;2023-03-01T14:57:54;12.30;;;10.07;;
1358;SDS011;673;48.098;14.422;2023-03-01T15:00:24;21.73;;;10.23;;
1358;SDS011;673;48.098;14.422;2023-03-01T15:02:53;15.00;;;12.80;;
1358;SDS011;673;48.098;14.422;2023-03-01T15:05:23;19.67;;;10.60;;
1358;SDS011;673;48.098;14.422;2023-03-01T15:07:55;19.17;;;10.77;;
1358;SDS011;673;48.098;14.422;2023-03-01T15:10:25;13.80;;;9.33;;
1358;SDS011;673;48.098;14.422;2023-03-01T15:12:53;14.83;;;8.60;;
1358;SDS011;673;48.098;14.422;2023-03-01T15:15:31;13.50;;;8.70;;
1358;SDS011;673;48.098;14.422;2023-03-01T15:18:00;19.53;;;11.80;;
1358;SDS011;673;48.098;14.422;2023-03-01T15:20:31;22.57;;;15.13;;
1358;SDS011;673;48.098;14.422;2023-03-01T15:23:01;17.20;;;11.60;;
1358;SDS011;673;48.098;14.422;2023-03-01T15:25:29;13.30;;;8.87;;
1358;SDS011;673;48.098;14.422;2023-03-01T15:27:59;15.70;;;10.03;;
1358;SDS011;673;48.098;14.422;2023-03-01T15:30:29;16.37;;;10.80;;
1358;SDS011;673;48.098;14.422;2023-03-01T15:35:48;12.17;;;9.57;;
1358;SDS011;673;48.098;14.422;2023-03-01T15:38:26;13.23;;;8.00;;
1358;SDS011;673;48.098;14.422;2023-03-01T15:40:58;12.70;;;8.83;;
1358;SDS011;673;48.098;14.422;2023-03-01T15:43:37;12.10;;;9.47;;
1358;SDS011;673;48.098;14.422;2023-03-01T15:46:15;24.00;;;13.47;;